sensor_id;sensor_type;location;lat;lon;timestamp;temperature;humidity
40374;DHT22;26079;45.958;12.492;2022-12-17T00:01:25;8.40;99.90
40374;DHT22;26079;45.958;12.492;2022-12-17T00:04:09;8.40;99.90
40374;DHT22;26079;45.958;12.492;2022-12-17T00:06:53;8.30;99.90
40374;DHT22;26079;45.958;12.492;2022-12-17T00:09:37;8.30;99.90
40374;DHT22;26079;45.958;12.492;2022-12-17T00:12:38;8.30;99.90
40374;DHT22;26079;45.958;12.492;2022-12-17T00:15:23;8.20;99.90
40374;DHT22;26079;45.958;12.492;2022-12-17T00:18:07;8.20;99.90
40374;DHT22;26079;45.958;12.492;2022-12-17T00:20:55;8.20;99.90
40374;DHT22;26079;45.958;12.492;2022-12-17T00:23:39;8.30;99.90
40374;DHT22;26079;45.958;12.492;2022-12-17T00:26:23;8.20;99.90
40374;DHT22;26079;45.958;12.492;2022-12-17T00:29:08;8.20;99.90
40374;DHT22;26079;45.958;12.492;2022-12-17T00:31:52;8.30;99.90
40374;DHT22;26079;45.958;12.492;2022-12-17T00:34:36;8.30;99.90
40374;DHT22;26079;45.958;12.492;2022-12-17T00:37:21;8.30;99.90
40374;DHT22;26079;45.958;12.492;2022-12-17T00:40:06;8.30;99.90
40374;DHT22;26079;45.958;12.492;2022-12-17T00:43:01;8.30;99.90
40374;DHT22;26079;45.958;12.492;2022-12-17T00:45:45;8.20;99.90
40374;DHT22;26079;45.958;12.492;2022-12-17T00:48:30;8.30;99.90
40374;DHT22;26079;45.958;12.492;2022-12-17T00:51:14;8.20;99.90
40374;DHT22;26079;45.958;12.492;2022-12-17T00:53:59;8.30;99.90
40374;DHT22;26079;45.958;12.492;2022-12-17T00:56:43;8.30;99.90
40374;DHT22;26079;45.958;12.492;2022-12-17T00:59:27;8.30;99.90
40374;DHT22;26079;45.958;12.492;2022-12-17T01:02:11;8.30;99.90
40374;DHT22;26079;45.958;12.492;2022-12-17T01:04:55;8.30;99.90
40374;DHT22;26079;45.958;12.492;2022-12-17T01:07:39;8.30;99.90
40374;DHT22;26079;45.958;12.492;2022-12-17T01:10:40;8.30;99.90
40374;DHT22;26079;45.958;12.492;2022-12-17T01:13:25;8.30;99.90
40374;DHT22;26079;45.958;12.492;2022-12-17T01:16:12;8.30;99.90
40374;DHT22;26079;45.958;12.492;2022-12-17T01:18:57;8.30;99.90
40374;DHT22;26079;45.958;12.492;2022-12-17T01:21:43;8.30;99.90
40374;DHT22;26079;45.958;12.492;2022-12-17T01:24:27;8.30;99.90
40374;DHT22;26079;45.958;12.492;2022-12-17T01:27:11;8.20;99.90
40374;DHT22;26079;45.958;12.492;2022-12-17T01:29:55;8.20;99.90
40374;DHT22;26079;45.958;12.492;2022-12-17T01:32:39;8.20;99.90
40374;DHT22;26079;45.958;12.492;2022-12-17T01:35:23;8.20;99.90
40374;DHT22;26079;45.958;12.492;2022-12-17T01:38:16;8.20;99.90
40374;DHT22;26079;45.958;12.492;2022-12-17T01:41:01;8.20;99.90
40374;DHT22;26079;45.958;12.492;2022-12-17T01:43:46;8.30;99.90
40374;DHT22;26079;45.958;12.492;2022-12-17T01:46:34;8.30;99.90
40374;DHT22;26079;45.958;12.492;2022-12-17T01:49:21;8.30;99.90
40374;DHT22;26079;45.958;12.492;2022-12-17T01:52:06;8.30;99.90
40374;DHT22;26079;45.958;12.492;2022-12-17T01:54:51;8.20;99.90
40374;DHT22;26079;45.958;12.492;2022-12-17T01:57:35;8.30;99.90
40374;DHT22;26079;45.958;12.492;2022-12-17T02:00:19;8.30;99.90
40374;DHT22;26079;45.958;12.492;2022-12-17T02:03:04;8.30;99.90
40374;DHT22;26079;45.958;12.492;2022-12-17T02:05:53;8.30;99.90
40374;DHT22;26079;45.958;12.492;2022-12-17T02:09:02;8.30;99.90
40374;DHT22;26079;45.958;12.492;2022-12-17T02:12:26;8.30;99.90
40374;DHT22;26079;45.958;12.492;2022-12-17T02:18:17;8.20;99.90
40374;DHT22;26079;45.958;12.492;2022-12-17T02:21:05;8.20;99.90
40374;DHT22;26079;45.958;12.492;2022-12-17T02:24:07;8.20;99.90
40374;DHT22;26079;45.958;12.492;2022-12-17T02:26:59;8.20;99.90
40374;DHT22;26079;45.958;12.492;2022-12-17T02:29:50;8.20;99.90
40374;DHT22;26079;45.958;12.492;2022-12-17T02:32:37;8.20;99.90
40374;DHT22;26079;45.958;12.492;2022-12-17T02:35:24;8.20;99.90
40374;DHT22;26079;45.958;12.492;2022-12-17T02:38:28;8.20;99.90
40374;DHT22;26079;45.958;12.492;2022-12-17T02:41:23;8.20;99.90
40374;DHT22;26079;45.958;12.492;2022-12-17T02:44:10;8.20;99.90
40374;DHT22;26079;45.958;12.492;2022-12-17T02:46:57;8.20;99.90
40374;DHT22;26079;45.958;12.492;2022-12-17T02:49:43;8.20;99.90
40374;DHT22;26079;45.958;12.492;2022-12-17T02:52:27;8.20;99.90
40374;DHT22;26079;45.958;12.492;2022-12-17T02:55:11;8.30;99.90
40374;DHT22;26079;45.958;12.492;2022-12-17T02:57:55;8.30;99.90
40374;DHT22;26079;45.958;12.492;2022-12-17T03:00:39;8.30;99.90
40374;DHT22;26079;45.958;12.492;2022-12-17T03:03:24;8.30;99.90
40374;DHT22;26079;45.958;12.492;2022-12-17T03:06:08;8.30;99.90
40374;DHT22;26079;45.958;12.492;2022-12-17T03:08:52;8.30;99.90
40374;DHT22;26079;45.958;12.492;2022-12-17T03:11:36;8.30;99.90
40374;DHT22;26079;45.958;12.492;2022-12-17T03:14:20;8.30;99.90
40374;DHT22;26079;45.958;12.492;2022-12-17T03:17:04;8.30;99.90
40374;DHT22;26079;45.958;12.492;2022-12-17T03:19:48;8.30;99.90
40374;DHT22;26079;45.958;12.492;2022-12-17T03:22:32;8.30;99.90
40374;DHT22;26079;45.958;12.492;2022-12-17T03:25:16;8.30;99.90
40374;DHT22;26079;45.958;12.492;2022-12-17T03:28:05;8.20;99.90
40374;DHT22;26079;45.958;12.492;2022-12-17T03:30:49;8.20;99.90
40374;DHT22;26079;45.958;12.492;2022-12-17T03:33:33;8.20;99.90
40374;DHT22;26079;45.958;12.492;2022-12-17T03:36:17;8.10;99.90
40374;DHT22;26079;45.958;12.492;2022-12-17T03:39:02;8.10;99.90
40374;DHT22;26079;45.958;12.492;2022-12-17T03:41:46;8.20;99.90
40374;DHT22;26079;45.958;12.492;2022-12-17T03:44:30;8.20;99.90
40374;DHT22;26079;45.958;12.492;2022-12-17T03:47:14;8.20;99.90
40374;DHT22;26079;45.958;12.492;2022-12-17T03:49:58;8.20;99.90
40374;DHT22;26079;45.958;12.492;2022-12-17T03:52:43;8.20;99.90
40374;DHT22;26079;45.958;12.492;2022-12-17T03:55:27;8.20;99.90
40374;DHT22;26079;45.958;12.492;2022-12-17T03:58:11;8.20;99.90
40374;DHT22;26079;45.958;12.492;2022-12-17T04:00:55;8.20;99.90
40374;DHT22;26079;45.958;12.492;2022-12-17T04:03:40;8.20;99.90
40374;DHT22;26079;45.958;12.492;2022-12-17T04:06:24;8.20;99.90
40374;DHT22;26079;45.958;12.492;2022-12-17T04:09:08;8.10;99.90
40374;DHT22;26079;45.958;12.492;2022-12-17T04:11:52;8.10;99.90
40374;DHT22;26079;45.958;12.492;2022-12-17T04:14:36;8.20;99.90
40374;DHT22;26079;45.958;12.492;2022-12-17T04:17:20;8.20;99.90
40374;DHT22;26079;45.958;12.492;2022-12-17T04:20:04;8.20;99.90
40374;DHT22;26079;45.958;12.492;2022-12-17T04:22:48;8.20;99.90
40374;DHT22;26079;45.958;12.492;2022-12-17T04:25:32;8.20;99.90
40374;DHT22;26079;45.958;12.492;2022-12-17T04:28:16;8.20;99.90
40374;DHT22;26079;45.958;12.492;2022-12-17T04:31:00;8.20;99.90
40374;DHT22;26079;45.958;12.492;2022-12-17T04:33:44;8.20;99.90
40374;DHT22;26079;45.958;12.492;2022-12-17T04:36:28;8.10;99.90
40374;DHT22;26079;45.958;12.492;2022-12-17T04:39:12;8.20;99.90
40374;DHT22;26079;45.958;12.492;2022-12-17T04:41:56;8.20;99.90
40374;DHT22;26079;45.958;12.492;2022-12-17T04:44:41;8.20;99.90
40374;DHT22;26079;45.958;12.492;2022-12-17T04:47:25;8.20;99.90
40374;DHT22;26079;45.958;12.492;2022-12-17T04:50:09;8.20;99.90
40374;DHT22;26079;45.958;12.492;2022-12-17T04:53:00;8.20;99.90
40374;DHT22;26079;45.958;12.492;2022-12-17T04:55:45;8.20;99.90
40374;DHT22;26079;45.958;12.492;2022-12-17T04:58:29;8.20;99.90
40374;DHT22;26079;45.958;12.492;2022-12-17T05:01:13;8.20;99.90
40374;DHT22;26079;45.958;12.492;2022-12-17T05:03:57;8.20;99.90
40374;DHT22;26079;45.958;12.492;2022-12-17T05:06:41;8.20;99.90
40374;DHT22;26079;45.958;12.492;2022-12-17T05:09:25;8.20;99.90
40374;DHT22;26079;45.958;12.492;2022-12-17T05:12:09;8.20;99.90
40374;DHT22;26079;45.958;12.492;2022-12-17T05:14:53;8.20;99.90
40374;DHT22;26079;45.958;12.492;2022-12-17T05:17:37;8.20;99.90
40374;DHT22;26079;45.958;12.492;2022-12-17T05:20:22;8.20;99.90
40374;DHT22;26079;45.958;12.492;2022-12-17T05:23:07;8.20;99.90
40374;DHT22;26079;45.958;12.492;2022-12-17T05:26:17;8.30;99.90
40374;DHT22;26079;45.958;12.492;2022-12-17T05:29:02;8.30;99.90
40374;DHT22;26079;45.958;12.492;2022-12-17T05:31:48;8.30;99.90
40374;DHT22;26079;45.958;12.492;2022-12-17T05:34:32;8.30;99.90
40374;DHT22;26079;45.958;12.492;2022-12-17T05:37:16;8.10;99.90
40374;DHT22;26079;45.958;12.492;2022-12-17T05:40:00;7.90;99.90
40374;DHT22;26079;45.958;12.492;2022-12-17T05:42:59;7.70;99.90
40374;DHT22;26079;45.958;12.492;2022-12-17T05:45:45;7.50;99.90
40374;DHT22;26079;45.958;12.492;2022-12-17T05:48:29;7.40;99.90
40374;DHT22;26079;45.958;12.492;2022-12-17T05:51:14;7.40;99.90
40374;DHT22;26079;45.958;12.492;2022-12-17T05:53:58;7.30;99.90
40374;DHT22;26079;45.958;12.492;2022-12-17T05:56:43;7.20;99.90
40374;DHT22;26079;45.958;12.492;2022-12-17T05:59:27;7.20;99.90
40374;DHT22;26079;45.958;12.492;2022-12-17T06:02:11;7.10;99.90
40374;DHT22;26079;45.958;12.492;2022-12-17T06:04:55;7.10;99.90
40374;DHT22;26079;45.958;12.492;2022-12-17T06:07:39;7.10;99.90
40374;DHT22;26079;45.958;12.492;2022-12-17T06:10:31;7.10;99.90
40374;DHT22;26079;45.958;12.492;2022-12-17T06:13:16;7.10;99.90
40374;DHT22;26079;45.958;12.492;2022-12-17T06:16:00;7.10;99.90
40374;DHT22;26079;45.958;12.492;2022-12-17T06:18:44;7.10;99.90
40374;DHT22;26079;45.958;12.492;2022-12-17T06:21:28;7.00;99.90
40374;DHT22;26079;45.958;12.492;2022-12-17T06:24:12;7.00;99.90
40374;DHT22;26079;45.958;12.492;2022-12-17T06:27:00;7.00;99.90
40374;DHT22;26079;45.958;12.492;2022-12-17T06:29:45;7.10;99.90
40374;DHT22;26079;45.958;12.492;2022-12-17T06:32:28;7.10;99.90
40374;DHT22;26079;45.958;12.492;2022-12-17T06:35:13;7.00;99.90
40374;DHT22;26079;45.958;12.492;2022-12-17T06:38:02;7.00;99.90
40374;DHT22;26079;45.958;12.492;2022-12-17T06:40:47;7.00;99.90
40374;DHT22;26079;45.958;12.492;2022-12-17T06:43:31;7.00;99.90
40374;DHT22;26079;45.958;12.492;2022-12-17T06:46:15;7.00;99.90
40374;DHT22;26079;45.958;12.492;2022-12-17T06:48:59;7.00;99.90
40374;DHT22;26079;45.958;12.492;2022-12-17T06:51:43;7.00;99.90
40374;DHT22;26079;45.958;12.492;2022-12-17T06:54:27;7.00;99.90
40374;DHT22;26079;45.958;12.492;2022-12-17T06:57:12;7.10;99.90
40374;DHT22;26079;45.958;12.492;2022-12-17T06:59:56;7.10;99.90
40374;DHT22;26079;45.958;12.492;2022-12-17T07:02:40;7.10;99.90
40374;DHT22;26079;45.958;12.492;2022-12-17T07:05:24;7.20;99.90
40374;DHT22;26079;45.958;12.492;2022-12-17T07:08:08;7.30;99.90
40374;DHT22;26079;45.958;12.492;2022-12-17T07:10:53;7.30;99.90
40374;DHT22;26079;45.958;12.492;2022-12-17T07:13:37;7.30;99.90
40374;DHT22;26079;45.958;12.492;2022-12-17T07:16:21;7.30;99.90
40374;DHT22;26079;45.958;12.492;2022-12-17T07:19:05;7.30;99.90
40374;DHT22;26079;45.958;12.492;2022-12-17T07:21:49;7.30;99.90
40374;DHT22;26079;45.958;12.492;2022-12-17T07:24:33;7.30;99.90
40374;DHT22;26079;45.958;12.492;2022-12-17T07:27:17;7.40;99.90
40374;DHT22;26079;45.958;12.492;2022-12-17T07:30:02;7.40;99.90
40374;DHT22;26079;45.958;12.492;2022-12-17T07:32:46;7.40;99.90
40374;DHT22;26079;45.958;12.492;2022-12-17T07:35:30;7.40;99.90
40374;DHT22;26079;45.958;12.492;2022-12-17T07:38:14;7.40;99.90
40374;DHT22;26079;45.958;12.492;2022-12-17T07:40:58;7.50;99.90
40374;DHT22;26079;45.958;12.492;2022-12-17T07:43:43;7.50;99.90
40374;DHT22;26079;45.958;12.492;2022-12-17T07:46:27;7.60;99.90
40374;DHT22;26079;45.958;12.492;2022-12-17T07:49:11;7.70;99.90
40374;DHT22;26079;45.958;12.492;2022-12-17T07:51:55;7.70;99.90
40374;DHT22;26079;45.958;12.492;2022-12-17T07:54:39;7.70;99.90
40374;DHT22;26079;45.958;12.492;2022-12-17T07:57:24;7.70;99.90
40374;DHT22;26079;45.958;12.492;2022-12-17T08:00:09;7.70;99.90
40374;DHT22;26079;45.958;12.492;2022-12-17T08:03:00;7.70;99.90
40374;DHT22;26079;45.958;12.492;2022-12-17T08:05:45;7.60;99.90
40374;DHT22;26079;45.958;12.492;2022-12-17T08:08:29;7.60;99.90
40374;DHT22;26079;45.958;12.492;2022-12-17T08:11:13;7.70;99.90
40374;DHT22;26079;45.958;12.492;2022-12-17T08:13:58;7.70;99.90
40374;DHT22;26079;45.958;12.492;2022-12-17T08:16:42;7.70;99.90
40374;DHT22;26079;45.958;12.492;2022-12-17T08:19:29;7.70;99.90
40374;DHT22;26079;45.958;12.492;2022-12-17T08:22:15;7.80;99.90
40374;DHT22;26079;45.958;12.492;2022-12-17T08:24:59;7.80;99.90
40374;DHT22;26079;45.958;12.492;2022-12-17T08:27:44;7.80;99.90
40374;DHT22;26079;45.958;12.492;2022-12-17T08:30:29;7.90;99.90
40374;DHT22;26079;45.958;12.492;2022-12-17T08:33:16;7.90;99.90
40374;DHT22;26079;45.958;12.492;2022-12-17T08:36:00;7.90;99.90
40374;DHT22;26079;45.958;12.492;2022-12-17T08:38:44;7.90;99.90
40374;DHT22;26079;45.958;12.492;2022-12-17T08:41:28;8.00;99.90
40374;DHT22;26079;45.958;12.492;2022-12-17T08:44:12;8.00;99.90
40374;DHT22;26079;45.958;12.492;2022-12-17T08:46:56;8.00;99.90
40374;DHT22;26079;45.958;12.492;2022-12-17T08:49:41;8.10;99.90
40374;DHT22;26079;45.958;12.492;2022-12-17T08:52:25;8.10;99.90
40374;DHT22;26079;45.958;12.492;2022-12-17T08:55:09;8.20;99.90
40374;DHT22;26079;45.958;12.492;2022-12-17T08:57:54;8.20;99.90
40374;DHT22;26079;45.958;12.492;2022-12-17T09:00:38;8.20;99.90
40374;DHT22;26079;45.958;12.492;2022-12-17T09:03:23;8.30;99.90
40374;DHT22;26079;45.958;12.492;2022-12-17T09:06:07;8.40;99.90
40374;DHT22;26079;45.958;12.492;2022-12-17T09:08:52;8.40;99.90
40374;DHT22;26079;45.958;12.492;2022-12-17T09:11:35;8.50;99.90
40374;DHT22;26079;45.958;12.492;2022-12-17T09:14:20;8.50;99.90
40374;DHT22;26079;45.958;12.492;2022-12-17T09:17:04;8.50;99.90
40374;DHT22;26079;45.958;12.492;2022-12-17T09:19:47;8.60;99.90
40374;DHT22;26079;45.958;12.492;2022-12-17T09:22:32;8.70;99.90
40374;DHT22;26079;45.958;12.492;2022-12-17T09:25:16;8.70;99.90
40374;DHT22;26079;45.958;12.492;2022-12-17T09:28:01;8.80;99.90
40374;DHT22;26079;45.958;12.492;2022-12-17T09:30:46;8.80;99.90
40374;DHT22;26079;45.958;12.492;2022-12-17T09:33:30;8.80;99.90
40374;DHT22;26079;45.958;12.492;2022-12-17T09:36:15;8.80;99.90
40374;DHT22;26079;45.958;12.492;2022-12-17T09:38:59;8.80;99.90
40374;DHT22;26079;45.958;12.492;2022-12-17T09:42:20;8.80;99.90
40374;DHT22;26079;45.958;12.492;2022-12-17T09:48:55;8.80;99.90
40374;DHT22;26079;45.958;12.492;2022-12-17T09:51:40;8.90;99.90
40374;DHT22;26079;45.958;12.492;2022-12-17T09:57:13;8.90;99.90
40374;DHT22;26079;45.958;12.492;2022-12-17T09:59:58;9.00;99.90
40374;DHT22;26079;45.958;12.492;2022-12-17T10:02:42;9.10;99.90
40374;DHT22;26079;45.958;12.492;2022-12-17T10:05:29;9.20;99.90
40374;DHT22;26079;45.958;12.492;2022-12-17T10:08:17;9.30;99.90
40374;DHT22;26079;45.958;12.492;2022-12-17T10:11:25;9.40;99.90
40374;DHT22;26079;45.958;12.492;2022-12-17T10:14:17;9.40;99.90
40374;DHT22;26079;45.958;12.492;2022-12-17T10:17:02;9.50;99.90
40374;DHT22;26079;45.958;12.492;2022-12-17T10:19:50;9.50;99.90
40374;DHT22;26079;45.958;12.492;2022-12-17T10:22:46;9.40;99.90
40374;DHT22;26079;45.958;12.492;2022-12-17T10:25:32;9.40;99.90
40374;DHT22;26079;45.958;12.492;2022-12-17T10:28:22;9.50;99.90
40374;DHT22;26079;45.958;12.492;2022-12-17T10:31:15;9.50;99.90
40374;DHT22;26079;45.958;12.492;2022-12-17T10:34:01;9.40;99.90
40374;DHT22;26079;45.958;12.492;2022-12-17T10:36:50;9.40;99.90
40374;DHT22;26079;45.958;12.492;2022-12-17T10:39:35;9.40;99.90
40374;DHT22;26079;45.958;12.492;2022-12-17T10:42:28;9.50;99.90
40374;DHT22;26079;45.958;12.492;2022-12-17T10:48:30;9.40;99.90
40374;DHT22;26079;45.958;12.492;2022-12-17T10:51:23;9.50;99.90
40374;DHT22;26079;45.958;12.492;2022-12-17T10:57:05;9.50;99.90
40374;DHT22;26079;45.958;12.492;2022-12-17T10:59:50;9.50;99.90
40374;DHT22;26079;45.958;12.492;2022-12-17T11:02:38;9.60;99.90
40374;DHT22;26079;45.958;12.492;2022-12-17T11:05:32;9.60;99.90
40374;DHT22;26079;45.958;12.492;2022-12-17T11:08:21;9.70;99.90
40374;DHT22;26079;45.958;12.492;2022-12-17T11:11:09;9.80;99.90
40374;DHT22;26079;45.958;12.492;2022-12-17T11:13:55;9.90;99.90
40374;DHT22;26079;45.958;12.492;2022-12-17T11:16:45;9.90;99.90
40374;DHT22;26079;45.958;12.492;2022-12-17T11:22:55;9.80;99.90
40374;DHT22;26079;45.958;12.492;2022-12-17T11:26:04;9.90;99.90
40374;DHT22;26079;45.958;12.492;2022-12-17T11:28:49;10.00;99.90
40374;DHT22;26079;45.958;12.492;2022-12-17T11:35:00;9.90;99.90
40374;DHT22;26079;45.958;12.492;2022-12-17T11:37:49;9.80;99.90
40374;DHT22;26079;45.958;12.492;2022-12-17T11:40:41;9.90;99.90
40374;DHT22;26079;45.958;12.492;2022-12-17T11:52:37;9.90;99.40
40374;DHT22;26079;45.958;12.492;2022-12-17T12:04:36;9.80;99.40
40374;DHT22;26079;45.958;12.492;2022-12-17T12:10:25;9.80;99.50
40374;DHT22;26079;45.958;12.492;2022-12-17T12:16:31;9.80;98.40
40374;DHT22;26079;45.958;12.492;2022-12-17T12:28:55;9.70;99.70
40374;DHT22;26079;45.958;12.492;2022-12-17T12:34:39;9.60;98.10
40374;DHT22;26079;45.958;12.492;2022-12-17T12:37:24;9.70;99.10
40374;DHT22;26079;45.958;12.492;2022-12-17T12:40:35;9.70;98.80
40374;DHT22;26079;45.958;12.492;2022-12-17T12:43:33;9.70;99.10
40374;DHT22;26079;45.958;12.492;2022-12-17T12:46:38;9.70;99.20
40374;DHT22;26079;45.958;12.492;2022-12-17T12:49:50;9.80;99.90
40374;DHT22;26079;45.958;12.492;2022-12-17T12:52:36;9.80;99.90
40374;DHT22;26079;45.958;12.492;2022-12-17T12:55:20;9.90;99.90
40374;DHT22;26079;45.958;12.492;2022-12-17T12:58:27;9.80;98.40
40374;DHT22;26079;45.958;12.492;2022-12-17T13:01:10;9.70;98.30
40374;DHT22;26079;45.958;12.492;2022-12-17T13:03:56;9.70;98.90
40374;DHT22;26079;45.958;12.492;2022-12-17T13:06:55;9.60;99.90
40374;DHT22;26079;45.958;12.492;2022-12-17T13:09:37;9.50;99.40
40374;DHT22;26079;45.958;12.492;2022-12-17T13:12:21;9.60;99.80
40374;DHT22;26079;45.958;12.492;2022-12-17T13:17:35;9.60;98.80
40374;DHT22;26079;45.958;12.492;2022-12-17T13:20:33;9.60;99.90
40374;DHT22;26079;45.958;12.492;2022-12-17T13:23:15;9.60;98.70
40374;DHT22;26079;45.958;12.492;2022-12-17T13:25:41;9.60;98.70
40374;DHT22;26079;45.958;12.492;2022-12-17T13:28:27;9.60;96.40
40374;DHT22;26079;45.958;12.492;2022-12-17T13:31:14;9.50;96.50
40374;DHT22;26079;45.958;12.492;2022-12-17T13:39:37;9.60;95.50
40374;DHT22;26079;45.958;12.492;2022-12-17T13:42:15;9.70;96.10
40374;DHT22;26079;45.958;12.492;2022-12-17T13:44:44;9.70;95.30
40374;DHT22;26079;45.958;12.492;2022-12-17T13:47:22;9.70;95.20
40374;DHT22;26079;45.958;12.492;2022-12-17T13:49:53;9.70;94.30
40374;DHT22;26079;45.958;12.492;2022-12-17T13:52:20;9.80;94.40
40374;DHT22;26079;45.958;12.492;2022-12-17T13:54:48;9.70;95.30
40374;DHT22;26079;45.958;12.492;2022-12-17T13:57:17;9.60;94.50
40374;DHT22;26079;45.958;12.492;2022-12-17T13:59:59;9.70;95.10
40374;DHT22;26079;45.958;12.492;2022-12-17T14:02:35;9.70;95.00
40374;DHT22;26079;45.958;12.492;2022-12-17T14:05:06;9.70;95.50
40374;DHT22;26079;45.958;12.492;2022-12-17T14:07:36;9.70;94.20
40374;DHT22;26079;45.958;12.492;2022-12-17T14:10:16;9.70;94.40
40374;DHT22;26079;45.958;12.492;2022-12-17T14:12:45;9.60;92.80
40374;DHT22;26079;45.958;12.492;2022-12-17T14:17:47;9.60;91.60
40374;DHT22;26079;45.958;12.492;2022-12-17T14:22:48;9.40;93.30
40374;DHT22;26079;45.958;12.492;2022-12-17T14:25:22;9.40;92.60
40374;DHT22;26079;45.958;12.492;2022-12-17T14:30:38;9.30;90.30
40374;DHT22;26079;45.958;12.492;2022-12-17T14:36:02;9.20;90.50
40374;DHT22;26079;45.958;12.492;2022-12-17T14:38:29;9.10;91.10
40374;DHT22;26079;45.958;12.492;2022-12-17T14:41:07;9.10;91.10
40374;DHT22;26079;45.958;12.492;2022-12-17T14:43:58;9.00;91.90
40374;DHT22;26079;45.958;12.492;2022-12-17T14:46:26;9.00;91.30
40374;DHT22;26079;45.958;12.492;2022-12-17T14:48:59;8.90;91.20
40374;DHT22;26079;45.958;12.492;2022-12-17T14:51:40;8.90;91.20
40374;DHT22;26079;45.958;12.492;2022-12-17T14:54:26;8.90;91.40
40374;DHT22;26079;45.958;12.492;2022-12-17T14:56:54;8.90;91.80
40374;DHT22;26079;45.958;12.492;2022-12-17T15:01:58;8.90;93.00
40374;DHT22;26079;45.958;12.492;2022-12-17T15:04:24;8.90;91.90
40374;DHT22;26079;45.958;12.492;2022-12-17T15:06:53;8.90;94.00
40374;DHT22;26079;45.958;12.492;2022-12-17T15:09:22;8.80;93.80
40374;DHT22;26079;45.958;12.492;2022-12-17T15:11:48;8.80;91.60
40374;DHT22;26079;45.958;12.492;2022-12-17T15:14:14;8.80;91.40
40374;DHT22;26079;45.958;12.492;2022-12-17T15:16:40;8.80;90.50
40374;DHT22;26079;45.958;12.492;2022-12-17T15:19:05;8.80;88.70
40374;DHT22;26079;45.958;12.492;2022-12-17T15:21:31;8.80;89.20
40374;DHT22;26079;45.958;12.492;2022-12-17T15:24:00;8.80;88.90
40374;DHT22;26079;45.958;12.492;2022-12-17T15:26:28;8.70;87.50
40374;DHT22;26079;45.958;12.492;2022-12-17T15:28:54;8.60;89.30
40374;DHT22;26079;45.958;12.492;2022-12-17T15:31:20;8.50;89.20
40374;DHT22;26079;45.958;12.492;2022-12-17T15:33:45;8.50;89.50
40374;DHT22;26079;45.958;12.492;2022-12-17T15:36:11;8.40;90.40
40374;DHT22;26079;45.958;12.492;2022-12-17T15:38:37;8.30;90.80
40374;DHT22;26079;45.958;12.492;2022-12-17T15:41:04;8.20;90.90
40374;DHT22;26079;45.958;12.492;2022-12-17T15:43:50;8.10;91.90
40374;DHT22;26079;45.958;12.492;2022-12-17T15:46:17;8.00;93.20
40374;DHT22;26079;45.958;12.492;2022-12-17T15:48:42;8.00;93.90
40374;DHT22;26079;45.958;12.492;2022-12-17T15:51:11;7.90;92.80
40374;DHT22;26079;45.958;12.492;2022-12-17T15:53:37;7.80;92.90
40374;DHT22;26079;45.958;12.492;2022-12-17T15:56:03;7.80;93.40
40374;DHT22;26079;45.958;12.492;2022-12-17T15:58:29;7.80;91.00
40374;DHT22;26079;45.958;12.492;2022-12-17T16:00:55;7.80;92.70
40374;DHT22;26079;45.958;12.492;2022-12-17T16:03:20;7.80;91.40
40374;DHT22;26079;45.958;12.492;2022-12-17T16:05:51;7.80;91.50
40374;DHT22;26079;45.958;12.492;2022-12-17T16:08:17;7.80;90.80
40374;DHT22;26079;45.958;12.492;2022-12-17T16:10:43;7.80;91.40
40374;DHT22;26079;45.958;12.492;2022-12-17T16:13:09;7.70;92.10
40374;DHT22;26079;45.958;12.492;2022-12-17T16:15:34;7.70;92.10
40374;DHT22;26079;45.958;12.492;2022-12-17T16:18:00;7.70;93.10
40374;DHT22;26079;45.958;12.492;2022-12-17T16:20:29;7.70;90.90
40374;DHT22;26079;45.958;12.492;2022-12-17T16:22:54;7.70;91.00
40374;DHT22;26079;45.958;12.492;2022-12-17T16:25:20;7.60;93.50
40374;DHT22;26079;45.958;12.492;2022-12-17T16:27:46;7.60;91.20
40374;DHT22;26079;45.958;12.492;2022-12-17T16:30:12;7.60;91.30
40374;DHT22;26079;45.958;12.492;2022-12-17T16:32:38;7.60;91.30
40374;DHT22;26079;45.958;12.492;2022-12-17T16:35:04;7.60;90.80
40374;DHT22;26079;45.958;12.492;2022-12-17T16:37:30;7.70;90.30
40374;DHT22;26079;45.958;12.492;2022-12-17T16:39:55;7.70;90.50
40374;DHT22;26079;45.958;12.492;2022-12-17T16:42:24;7.70;89.60
40374;DHT22;26079;45.958;12.492;2022-12-17T16:44:50;7.70;89.50
40374;DHT22;26079;45.958;12.492;2022-12-17T16:47:15;7.70;89.60
40374;DHT22;26079;45.958;12.492;2022-12-17T16:49:41;7.70;90.90
40374;DHT22;26079;45.958;12.492;2022-12-17T16:52:07;7.70;90.80
40374;DHT22;26079;45.958;12.492;2022-12-17T16:54:32;7.70;90.00
40374;DHT22;26079;45.958;12.492;2022-12-17T16:56:59;7.70;89.90
40374;DHT22;26079;45.958;12.492;2022-12-17T16:59:26;7.70;91.20
40374;DHT22;26079;45.958;12.492;2022-12-17T17:01:54;7.70;91.30
40374;DHT22;26079;45.958;12.492;2022-12-17T17:04:25;7.70;90.50
40374;DHT22;26079;45.958;12.492;2022-12-17T17:06:52;7.70;91.20
40374;DHT22;26079;45.958;12.492;2022-12-17T17:09:19;7.70;90.00
40374;DHT22;26079;45.958;12.492;2022-12-17T17:11:45;7.70;89.20
40374;DHT22;26079;45.958;12.492;2022-12-17T17:14:11;7.70;89.50
40374;DHT22;26079;45.958;12.492;2022-12-17T17:16:37;7.60;90.90
40374;DHT22;26079;45.958;12.492;2022-12-17T17:19:06;7.60;89.20
40374;DHT22;26079;45.958;12.492;2022-12-17T17:21:35;7.60;88.70
40374;DHT22;26079;45.958;12.492;2022-12-17T17:24:05;7.50;88.40
40374;DHT22;26079;45.958;12.492;2022-12-17T17:26:32;7.50;89.90
40374;DHT22;26079;45.958;12.492;2022-12-17T17:29:01;7.50;88.70
40374;DHT22;26079;45.958;12.492;2022-12-17T17:31:27;7.40;89.90
40374;DHT22;26079;45.958;12.492;2022-12-17T17:33:53;7.30;89.40
40374;DHT22;26079;45.958;12.492;2022-12-17T17:36:26;7.30;89.80
40374;DHT22;26079;45.958;12.492;2022-12-17T17:38:53;7.20;89.40
40374;DHT22;26079;45.958;12.492;2022-12-17T17:41:22;7.20;90.70
40374;DHT22;26079;45.958;12.492;2022-12-17T17:43:56;7.20;91.30
40374;DHT22;26079;45.958;12.492;2022-12-17T17:46:23;7.10;90.80
40374;DHT22;26079;45.958;12.492;2022-12-17T17:48:50;7.00;91.70
40374;DHT22;26079;45.958;12.492;2022-12-17T17:51:24;7.00;91.50
40374;DHT22;26079;45.958;12.492;2022-12-17T17:53:52;7.00;89.90
40374;DHT22;26079;45.958;12.492;2022-12-17T17:56:47;6.90;91.70
40374;DHT22;26079;45.958;12.492;2022-12-17T17:59:14;6.90;90.00
40374;DHT22;26079;45.958;12.492;2022-12-17T18:01:48;6.80;90.80
40374;DHT22;26079;45.958;12.492;2022-12-17T18:04:22;6.80;90.00
40374;DHT22;26079;45.958;12.492;2022-12-17T18:06:48;6.80;90.50
40374;DHT22;26079;45.958;12.492;2022-12-17T18:09:14;6.70;90.80
40374;DHT22;26079;45.958;12.492;2022-12-17T18:11:44;6.70;91.60
40374;DHT22;26079;45.958;12.492;2022-12-17T18:14:10;6.60;91.80
40374;DHT22;26079;45.958;12.492;2022-12-17T18:16:39;6.50;91.60
40374;DHT22;26079;45.958;12.492;2022-12-17T18:21:33;6.50;92.60
40374;DHT22;26079;45.958;12.492;2022-12-17T18:24:08;6.40;91.20